Time;durP1;ratioP1;P1;durP2;ratioP2;P2;SDS_P1;SDS_P2;PMS_P1;PMS_P2;Temp;Humidity;BMP_temperature;BMP_pressure;BME280_temperature;BME280_humidity;BME280_pressure;Samples;Min_cycle;Max_cycle;Signal;HPM_P1;HPM_P2
2023/06/16 00:01:22;;;;;;;6.10;5.00;;;;;;;;;;108079;271;38665;-39
2023/06/16 00:03:56;;;;;;;6.00;5.40;;;;;;;;;;108119;275;39743;-41
2023/06/16 00:06:30;;;;;;;5.40;4.80;;;;;;;;;;108138;275;43256;-40
2023/06/16 00:09:04;;;;;;;5.80;5.20;;;;;;;;;;108144;275;43195;-40
2023/06/16 00:11:37;;;;;;;6.20;5.40;;;;;;;;;;108102;275;38845;-42
2023/06/16 00:14:10;;;;;;;5.80;5.20;;;;;;;;;;108141;275;39621;-41
2023/06/16 00:16:44;;;;;;;5.70;5.10;;;;;;;;;;108152;275;42944;-40
2023/06/16 00:19:18;;;;;;;6.10;5.30;;;;;;;;;;108137;275;42205;-39
2023/06/16 00:21:52;;;;;;;6.40;5.10;;;;;;;;;;108062;267;38806;-40
2023/06/16 00:24:25;;;;;;;5.80;5.20;;;;;;;;;;108138;275;39662;-40
2023/06/16 00:26:59;;;;;;;6.70;5.60;;;;;;;;;;108121;275;42911;-40
2023/06/16 00:29:32;;;;;;;5.90;5.20;;;;;;;;;;108116;275;41865;-39
2023/06/16 00:32:07;;;;;;;5.90;5.20;;;;;;;;;;108074;267;38786;-39
2023/06/16 00:34:43;;;;;;;6.00;5.40;;;;;;;;;;108086;275;39698;-39
2023/06/16 00:37:17;;;;;;;6.20;5.50;;;;;;;;;;108133;272;42903;-39
2023/06/16 00:39:50;;;;;;;6.30;5.30;;;;;;;;;;108116;275;43279;-42
2023/06/16 00:42:23;;;;;;;5.80;5.20;;;;;;;;;;108118;275;39813;-39
2023/06/16 00:44:57;;;;;;;6.00;5.40;;;;;;;;;;108131;275;40088;-39
2023/06/16 00:47:30;;;;;;;6.40;5.40;;;;;;;;;;108023;274;42838;-39
2023/06/16 00:50:05;;;;;;;6.10;5.50;;;;;;;;;;108129;275;42156;-40
2023/06/16 00:52:41;;;;;;;6.30;5.50;;;;;;;;;;108085;271;38795;-39
2023/06/16 00:55:15;;;;;;;5.90;5.30;;;;;;;;;;108068;275;39642;-40
2023/06/16 00:57:50;;;;;;;6.10;5.50;;;;;;;;;;108143;275;43807;-39
2023/06/16 01:00:24;;;;;;;5.90;5.30;;;;;;;;;;108126;275;43287;-41
2023/06/16 01:02:58;;;;;;;6.00;5.40;;;;;;;;;;108092;272;38743;-43
2023/06/16 01:05:33;;;;;;;6.40;5.40;;;;;;;;;;108125;271;39434;-44
2023/06/16 01:08:16;;;;;;;6.50;5.70;;;;;;;;;;108111;275;44021;-39
2023/06/16 01:11:04;;;;;;;6.20;5.40;;;;;;;;;;108168;275;43108;-40
2023/06/16 01:13:53;;;;;;;6.20;5.60;;;;;;;;;;108131;275;38545;-40
2023/06/16 01:16:32;;;;;;;6.00;5.40;;;;;;;;;;108137;271;39664;-40
2023/06/16 01:19:10;;;;;;;6.30;5.60;;;;;;;;;;108105;275;42522;-39
2023/06/16 01:22:02;;;;;;;6.40;5.60;;;;;;;;;;108011;271;175518;-40
2023/06/16 01:24:42;;;;;;;6.10;5.50;;;;;;;;;;108065;275;38863;-42
2023/06/16 01:27:21;;;;;;;6.70;6.00;;;;;;;;;;108147;275;40778;-40
2023/06/16 01:29:56;;;;;;;6.20;5.50;;;;;;;;;;108099;275;42598;-42
2023/06/16 01:32:31;;;;;;;6.20;5.60;;;;;;;;;;108123;275;42034;-39
2023/06/16 01:35:05;;;;;;;6.20;5.60;;;;;;;;;;108162;271;45541;-39
2023/06/16 01:37:43;;;;;;;6.10;5.50;;;;;;;;;;108111;267;40847;-39
2023/06/16 01:40:17;;;;;;;6.60;5.90;;;;;;;;;;108077;267;42868;-40
2023/06/16 01:42:55;;;;;;;6.30;5.60;;;;;;;;;;108075;271;42224;-39
2023/06/16 01:45:30;;;;;;;6.30;5.70;;;;;;;;;;108027;275;175529;-41
2023/06/16 01:48:04;;;;;;;6.20;5.50;;;;;;;;;;108163;275;39811;-39
2023/06/16 01:50:39;;;;;;;6.30;5.70;;;;;;;;;;108150;271;42793;-39
2023/06/16 01:53:12;;;;;;;6.30;5.60;;;;;;;;;;108100;272;42139;-39
2023/06/16 01:55:51;;;;;;;6.40;5.80;;;;;;;;;;108108;275;45961;-41
2023/06/16 01:58:27;;;;;;;6.10;5.50;;;;;;;;;;108124;271;39856;-40
2023/06/16 02:01:08;;;;;;;6.10;5.50;;;;;;;;;;108092;271;42972;-40
2023/06/16 02:03:48;;;;;;;6.40;5.70;;;;;;;;;;108036;267;42622;-39
2023/06/16 02:06:28;;;;;;;6.40;5.80;;;;;;;;;;108085;275;38624;-39
2023/06/16 02:09:06;;;;;;;6.20;5.60;;;;;;;;;;108059;271;39712;-41
2023/06/16 02:11:40;;;;;;;6.10;5.40;;;;;;;;;;108099;275;42563;-39
2023/06/16 02:14:14;;;;;;;6.10;5.50;;;;;;;;;;108011;273;41850;-39
2023/06/16 02:16:49;;;;;;;6.10;5.50;;;;;;;;;;108034;275;39885;-43
2023/06/16 02:19:23;;;;;;;6.60;5.80;;;;;;;;;;108126;275;40879;-40
2023/06/16 02:21:57;;;;;;;6.30;5.70;;;;;;;;;;108165;271;42871;-40
2023/06/16 02:24:31;;;;;;;6.40;5.70;;;;;;;;;;108013;267;43287;-40
2023/06/16 02:27:05;;;;;;;6.00;5.40;;;;;;;;;;108030;267;38756;-40
2023/06/16 02:29:38;;;;;;;6.20;5.60;;;;;;;;;;108106;267;39836;-44
2023/06/16 02:32:12;;;;;;;6.50;5.80;;;;;;;;;;108141;267;44035;-41
2023/06/16 02:34:47;;;;;;;7.30;5.50;;;;;;;;;;107957;273;42144;-40
2023/06/16 02:37:27;;;;;;;6.20;5.60;;;;;;;;;;108082;267;39115;-39
2023/06/16 02:40:00;;;;;;;6.60;5.60;;;;;;;;;;108062;275;39670;-39
2023/06/16 02:42:34;;;;;;;6.00;5.40;;;;;;;;;;108140;267;42789;-41
2023/06/16 02:45:10;;;;;;;6.30;5.70;;;;;;;;;;108050;267;42192;-41
2023/06/16 02:47:44;;;;;;;6.40;5.70;;;;;;;;;;108134;275;38880;-43
2023/06/16 02:50:19;;;;;;;6.30;5.70;;;;;;;;;;108079;275;39674;-39
2023/06/16 02:52:54;;;;;;;5.90;5.30;;;;;;;;;;108038;273;43254;-38
2023/06/16 02:55:27;;;;;;;6.30;5.70;;;;;;;;;;108068;267;41875;-41
2023/06/16 02:58:00;;;;;;;6.00;5.30;;;;;;;;;;108137;271;38800;-39
2023/06/16 03:00:34;;;;;;;6.50;5.80;;;;;;;;;;108117;275;39459;-40
2023/06/16 03:03:09;;;;;;;6.20;5.60;;;;;;;;;;108160;275;43976;-40
2023/06/16 03:05:44;;;;;;;6.50;5.70;;;;;;;;;;108121;275;42037;-39
2023/06/16 03:08:20;;;;;;;6.20;5.60;;;;;;;;;;108081;275;38693;-40
2023/06/16 03:10:53;;;;;;;6.20;5.50;;;;;;;;;;108072;275;40166;-41
2023/06/16 03:13:28;;;;;;;6.20;5.60;;;;;;;;;;108087;267;42849;-40
2023/06/16 03:16:03;;;;;;;6.10;5.50;;;;;;;;;;108046;267;43411;-40
2023/06/16 03:18:38;;;;;;;6.20;5.60;;;;;;;;;;108055;275;39129;-39
2023/06/16 03:21:16;;;;;;;6.40;5.50;;;;;;;;;;108040;271;39690;-39
2023/06/16 03:23:50;;;;;;;6.10;5.50;;;;;;;;;;108101;267;42776;-40
2023/06/16 03:26:24;;;;;;;6.50;5.50;;;;;;;;;;108096;267;43321;-41
2023/06/16 03:28:58;;;;;;;6.40;5.80;;;;;;;;;;108155;271;38571;-42
2023/06/16 03:31:32;;;;;;;6.20;5.60;;;;;;;;;;108126;275;39421;-41
2023/06/16 03:34:05;;;;;;;5.90;5.30;;;;;;;;;;108133;267;43994;-40
2023/06/16 03:36:51;;;;;;;6.10;5.50;;;;;;;;;;108096;275;42057;-40
2023/06/16 03:39:27;;;;;;;6.10;5.50;;;;;;;;;;108062;275;38653;-39
2023/06/16 03:42:00;;;;;;;6.00;5.30;;;;;;;;;;108075;275;39746;-39
2023/06/16 03:44:33;;;;;;;6.10;5.50;;;;;;;;;;108090;275;42941;-39
2023/06/16 03:47:08;;;;;;;6.50;5.90;;;;;;;;;;108045;275;42063;-42
2023/06/16 03:49:41;;;;;;;6.10;5.50;;;;;;;;;;108185;275;39271;-39
2023/06/16 03:52:15;;;;;;;6.10;5.50;;;;;;;;;;108112;275;40831;-39
2023/06/16 03:54:50;;;;;;;6.40;5.60;;;;;;;;;;107455;275;892895;-40
2023/06/16 03:57:23;;;;;;;6.00;5.40;;;;;;;;;;108082;275;43536;-42
2023/06/16 03:59:59;;;;;;;6.10;5.50;;;;;;;;;;108124;271;38795;-40
2023/06/16 04:02:32;;;;;;;6.20;5.60;;;;;;;;;;108105;275;39627;-41
2023/06/16 04:05:09;;;;;;;6.10;5.50;;;;;;;;;;108133;275;42773;-41
2023/06/16 04:07:42;;;;;;;6.30;5.60;;;;;;;;;;108097;268;42205;-41
2023/06/16 04:10:16;;;;;;;6.20;5.60;;;;;;;;;;108111;267;38882;-40
2023/06/16 04:12:52;;;;;;;6.00;5.40;;;;;;;;;;108109;275;39425;-40
2023/06/16 04:15:25;;;;;;;6.10;5.50;;;;;;;;;;108050;271;43883;-39
2023/06/16 04:18:01;;;;;;;6.00;5.40;;;;;;;;;;108031;267;42120;-39
2023/06/16 04:20:36;;;;;;;6.30;5.70;;;;;;;;;;108088;267;38718;-39
2023/06/16 04:23:10;;;;;;;5.90;5.30;;;;;;;;;;108078;275;40674;-40
2023/06/16 04:25:44;;;;;;;6.40;5.80;;;;;;;;;;108100;267;42827;-41
2023/06/16 04:28:17;;;;;;;6.40;5.80;;;;;;;;;;108146;275;43261;-41
2023/06/16 04:30:56;;;;;;;6.30;5.70;;;;;;;;;;108139;267;39949;-40
2023/06/16 04:33:32;;;;;;;6.50;5.90;;;;;;;;;;108144;271;39474;-40
2023/06/16 04:36:06;;;;;;;6.20;5.60;;;;;;;;;;108147;275;42565;-40
2023/06/16 04:38:42;;;;;;;6.70;6.00;;;;;;;;;;108108;271;43531;-39
2023/06/16 04:41:15;;;;;;;6.00;5.40;;;;;;;;;;108062;267;38756;-43
2023/06/16 04:43:48;;;;;;;6.30;5.70;;;;;;;;;;108104;275;39462;-40
2023/06/16 04:46:22;;;;;;;6.60;5.60;;;;;;;;;;108095;275;43216;-39
2023/06/16 04:48:55;;;;;;;6.00;5.40;;;;;;;;;;107623;269;532842;-39
2023/06/16 04:51:30;;;;;;;6.10;5.50;;;;;;;;;;108104;271;38752;-40
2023/06/16 04:54:04;;;;;;;6.00;5.40;;;;;;;;;;108057;271;39587;-41
2023/06/16 04:56:38;;;;;;;6.20;5.60;;;;;;;;;;108076;267;42761;-41
2023/06/16 04:59:11;;;;;;;6.50;5.90;;;;;;;;;;108034;267;47824;-40
2023/06/16 05:01:45;;;;;;;6.20;5.60;;;;;;;;;;108133;267;38905;-40
2023/06/16 05:04:18;;;;;;;6.40;5.80;;;;;;;;;;108139;275;39839;-43
2023/06/16 05:06:52;;;;;;;6.60;6.00;;;;;;;;;;108120;275;42792;-40
2023/06/16 05:09:26;;;;;;;6.10;5.50;;;;;;;;;;108094;269;46945;-45
2023/06/16 05:12:00;;;;;;;6.00;5.40;;;;;;;;;;108118;275;38785;-40
2023/06/16 05:14:33;;;;;;;6.30;5.70;;;;;;;;;;108145;275;39672;-39
2023/06/16 05:17:08;;;;;;;6.40;5.80;;;;;;;;;;108134;275;42823;-39
2023/06/16 05:19:42;;;;;;;6.20;5.60;;;;;;;;;;108099;271;46908;-40
2023/06/16 05:22:18;;;;;;;6.30;5.70;;;;;;;;;;108106;275;39979;-39
2023/06/16 05:24:54;;;;;;;6.40;5.80;;;;;;;;;;108125;275;39675;-39
2023/06/16 05:27:28;;;;;;;6.30;5.70;;;;;;;;;;108096;275;42882;-43
2023/06/16 05:30:02;;;;;;;6.10;5.50;;;;;;;;;;108067;275;47020;-43
2023/06/16 05:32:35;;;;;;;6.00;5.40;;;;;;;;;;108085;275;38878;-41
2023/06/16 05:35:10;;;;;;;6.10;5.50;;;;;;;;;;108056;271;39431;-41
2023/06/16 05:37:44;;;;;;;6.00;5.40;;;;;;;;;;108110;271;42954;-39
2023/06/16 05:40:18;;;;;;;6.00;5.40;;;;;;;;;;108070;275;47967;-40
2023/06/16 05:42:54;;;;;;;6.80;6.10;;;;;;;;;;108095;271;38598;-40
2023/06/16 05:45:27;;;;;;;6.50;5.70;;;;;;;;;;108105;271;39415;-40
2023/06/16 05:48:00;;;;;;;6.40;5.80;;;;;;;;;;108094;275;43958;-39
2023/06/16 05:50:34;;;;;;;6.10;5.50;;;;;;;;;;107958;275;175500;-40
2023/06/16 05:53:08;;;;;;;6.00;5.40;;;;;;;;;;108009;275;176767;-39
2023/06/16 05:55:42;;;;;;;6.00;5.40;;;;;;;;;;108128;275;39792;-40
2023/06/16 05:58:15;;;;;;;6.10;5.50;;;;;;;;;;108141;272;42825;-39
2023/06/16 06:00:48;;;;;;;6.70;6.00;;;;;;;;;;108149;275;48908;-38
2023/06/16 06:03:23;;;;;;;6.10;5.50;;;;;;;;;;108125;271;38764;-40
2023/06/16 06:05:57;;;;;;;6.00;5.40;;;;;;;;;;108114;275;39681;-38
2023/06/16 06:08:30;;;;;;;6.60;5.80;;;;;;;;;;108107;275;45120;-40
2023/06/16 06:11:06;;;;;;;6.00;5.40;;;;;;;;;;108071;275;47775;-39
2023/06/16 06:13:42;;;;;;;6.10;5.40;;;;;;;;;;108131;275;39037;-40
2023/06/16 06:16:16;;;;;;;6.00;5.40;;;;;;;;;;108076;267;39849;-40
2023/06/16 06:18:49;;;;;;;6.40;5.80;;;;;;;;;;108080;275;43860;-39
2023/06/16 06:21:22;;;;;;;6.20;5.60;;;;;;;;;;108082;275;48142;-42
2023/06/16 06:24:00;;;;;;;5.80;5.20;;;;;;;;;;108106;275;38654;-40
2023/06/16 06:26:38;;;;;;;5.90;5.30;;;;;;;;;;108123;275;39868;-40
2023/06/16 06:29:14;;;;;;;6.30;5.70;;;;;;;;;;108081;267;42792;-40
2023/06/16 06:31:47;;;;;;;6.20;5.60;;;;;;;;;;108133;271;47789;-39
2023/06/16 06:34:21;;;;;;;5.90;5.20;;;;;;;;;;108086;275;38525;-41
2023/06/16 06:36:55;;;;;;;5.90;5.30;;;;;;;;;;108047;271;39485;-39
2023/06/16 06:39:28;;;;;;;6.20;5.40;;;;;;;;;;108007;275;42795;-39
2023/06/16 06:42:02;;;;;;;5.90;5.30;;;;;;;;;;108028;273;50506;-39
2023/06/16 06:44:35;;;;;;;6.20;5.20;;;;;;;;;;108053;271;38775;-41
2023/06/16 06:47:09;;;;;;;6.30;5.50;;;;;;;;;;108046;275;39792;-39
2023/06/16 06:49:44;;;;;;;6.70;6.00;;;;;;;;;;108048;275;42968;-39
2023/06/16 06:52:18;;;;;;;7.20;6.50;;;;;;;;;;108054;267;49265;-40
2023/06/16 06:54:52;;;;;;;7.70;7.00;;;;;;;;;;107934;275;38903;-39
2023/06/16 06:57:25;;;;;;;8.50;7.70;;;;;;;;;;108029;271;39926;-39
2023/06/16 06:59:58;;;;;;;8.90;8.10;;;;;;;;;;108064;275;42842;-39
2023/06/16 07:02:32;;;;;;;9.30;8.50;;;;;;;;;;107978;271;175496;-39
2023/06/16 07:05:09;;;;;;;10.00;9.10;;;;;;;;;;108103;275;38793;-39
2023/06/16 07:07:45;;;;;;;10.40;9.50;;;;;;;;;;108287;271;39777;-40
2023/06/16 07:10:22;;;;;;;9.80;8.90;;;;;;;;;;107919;278;42869;-38
2023/06/16 07:12:55;;;;;;;9.90;9.00;;;;;;;;;;108011;269;42144;-40
2023/06/16 07:15:30;;;;;;;9.70;8.70;;;;;;;;;;108011;269;39937;-39
2023/06/16 07:18:03;;;;;;;9.90;9.00;;;;;;;;;;108021;276;39633;-42
2023/06/16 07:20:37;;;;;;;10.10;9.10;;;;;;;;;;107962;269;42793;-41
2023/06/16 07:23:10;;;;;;;10.10;9.10;;;;;;;;;;107995;276;42300;-42
2023/06/16 07:25:44;;;;;;;9.70;8.80;;;;;;;;;;107997;269;40031;-40
2023/06/16 07:28:19;;;;;;;9.90;9.00;;;;;;;;;;107950;269;40711;-45
2023/06/16 07:30:58;;;;;;;10.10;9.10;;;;;;;;;;107866;276;43974;-45
2023/06/16 07:33:31;;;;;;;9.90;8.90;;;;;;;;;;107966;272;42218;-40
2023/06/16 07:36:06;;;;;;;10.00;9.10;;;;;;;;;;108041;269;38522;-43
2023/06/16 07:38:39;;;;;;;9.20;8.30;;;;;;;;;;108030;269;39792;-43
2023/06/16 07:41:12;;;;;;;9.50;8.60;;;;;;;;;;107924;269;42867;-43
2023/06/16 07:43:47;;;;;;;9.00;8.20;;;;;;;;;;107998;276;43256;-42
2023/06/16 07:46:20;;;;;;;9.20;8.40;;;;;;;;;;108093;268;39964;-42
2023/06/16 07:48:55;;;;;;;9.10;8.30;;;;;;;;;;108083;276;39765;-43
2023/06/16 07:51:31;;;;;;;8.60;7.80;;;;;;;;;;108016;276;44007;-41
2023/06/16 07:54:04;;;;;;;8.40;7.60;;;;;;;;;;108072;265;43394;-41
2023/06/16 07:56:38;;;;;;;8.70;7.90;;;;;;;;;;107947;274;175473;-50
2023/06/16 07:59:12;;;;;;;8.70;7.80;;;;;;;;;;108059;276;39723;-41
2023/06/16 08:01:45;;;;;;;8.10;7.30;;;;;;;;;;107744;276;177451;-40
2023/06/16 08:04:19;;;;;;;8.30;7.50;;;;;;;;;;108084;269;42139;-37
2023/06/16 08:06:53;;;;;;;8.30;7.50;;;;;;;;;;108050;276;38748;-40
2023/06/16 08:09:28;;;;;;;8.40;7.60;;;;;;;;;;108065;276;40945;-43
2023/06/16 08:12:02;;;;;;;7.70;6.90;;;;;;;;;;107997;276;43267;-39
2023/06/16 08:14:35;;;;;;;8.10;7.30;;;;;;;;;;108124;277;42097;-44
2023/06/16 08:17:10;;;;;;;8.10;7.30;;;;;;;;;;108031;276;38567;-41
2023/06/16 08:19:46;;;;;;;7.80;7.00;;;;;;;;;;108075;269;39856;-40
2023/06/16 08:22:21;;;;;;;8.10;7.20;;;;;;;;;;107971;276;44163;-40
2023/06/16 08:24:55;;;;;;;7.50;6.80;;;;;;;;;;108068;269;42554;-40
2023/06/16 08:27:29;;;;;;;8.00;7.10;;;;;;;;;;108041;276;38760;-41
2023/06/16 08:30:03;;;;;;;8.00;7.20;;;;;;;;;;108041;276;39818;-40
2023/06/16 08:32:37;;;;;;;9.60;6.90;;;;;;;;;;107967;276;43988;-43
2023/06/16 08:35:16;;;;;;;8.30;7.40;;;;;;;;;;108061;269;42122;-41
2023/06/16 08:37:50;;;;;;;7.30;6.50;;;;;;;;;;108050;276;38700;-42
2023/06/16 08:40:25;;;;;;;7.10;6.40;;;;;;;;;;108072;276;39565;-41
2023/06/16 08:42:59;;;;;;;7.30;6.60;;;;;;;;;;108032;276;42970;-41
2023/06/16 08:45:32;;;;;;;7.60;6.80;;;;;;;;;;108034;272;41878;-42
2023/06/16 08:48:07;;;;;;;7.70;6.80;;;;;;;;;;108053;272;38570;-41
2023/06/16 08:50:42;;;;;;;8.10;6.40;;;;;;;;;;108089;276;39691;-43
2023/06/16 08:53:17;;;;;;;7.50;6.70;;;;;;;;;;108019;276;42971;-46
2023/06/16 08:55:53;;;;;;;8.60;6.70;;;;;;;;;;108007;269;175445;-45
2023/06/16 08:58:28;;;;;;;7.90;6.40;;;;;;;;;;108057;276;38913;-46
2023/06/16 09:01:07;;;;;;;7.40;6.50;;;;;;;;;;108093;276;39712;-44
2023/06/16 09:03:47;;;;;;;7.40;6.60;;;;;;;;;;108016;276;42833;-46
2023/06/16 09:06:26;;;;;;;7.70;6.50;;;;;;;;;;108088;276;42123;-45
2023/06/16 09:09:03;;;;;;;8.50;6.70;;;;;;;;;;108077;276;38586;-43
2023/06/16 09:11:36;;;;;;;7.60;6.80;;;;;;;;;;108074;272;40756;-42
2023/06/16 09:14:16;;;;;;;7.20;6.50;;;;;;;;;;108026;273;42637;-43
2023/06/16 09:16:58;;;;;;;7.50;6.70;;;;;;;;;;108089;276;43255;-44
2023/06/16 09:19:35;;;;;;;7.70;6.90;;;;;;;;;;108092;278;38869;-41
2023/06/16 09:22:09;;;;;;;7.70;6.80;;;;;;;;;;108103;273;40823;-41
2023/06/16 09:24:46;;;;;;;7.50;6.40;;;;;;;;;;108019;273;43070;-42
2023/06/16 09:27:23;;;;;;;7.60;6.80;;;;;;;;;;108044;276;43281;-42
2023/06/16 09:30:06;;;;;;;7.40;6.70;;;;;;;;;;108043;274;39216;-43
2023/06/16 09:32:45;;;;;;;7.40;6.60;;;;;;;;;;108075;269;39964;-41
2023/06/16 09:35:24;;;;;;;7.30;6.30;;;;;;;;;;108032;272;47654;-45
2023/06/16 09:38:03;;;;;;;7.10;6.30;;;;;;;;;;108012;269;42116;-41
2023/06/16 09:40:38;;;;;;;7.90;6.50;;;;;;;;;;108090;273;38530;-42
2023/06/16 09:43:13;;;;;;;7.50;6.50;;;;;;;;;;108032;276;39789;-41
2023/06/16 09:45:46;;;;;;;7.60;6.40;;;;;;;;;;108027;276;51000;-41
2023/06/16 09:48:21;;;;;;;6.80;6.00;;;;;;;;;;108037;276;42096;-41
2023/06/16 09:51:03;;;;;;;7.30;6.40;;;;;;;;;;108018;276;38521;-41
2023/06/16 09:53:38;;;;;;;7.00;6.00;;;;;;;;;;107986;268;39848;-40
2023/06/16 09:56:15;;;;;;;7.10;6.40;;;;;;;;;;108098;276;42804;-42
2023/06/16 09:58:59;;;;;;;7.00;6.00;;;;;;;;;;108068;276;42190;-41
2023/06/16 10:01:34;;;;;;;6.50;5.80;;;;;;;;;;107973;273;38584;-39
2023/06/16 10:04:12;;;;;;;7.00;5.80;;;;;;;;;;107973;269;39805;-41
2023/06/16 10:06:56;;;;;;;6.90;6.20;;;;;;;;;;107978;272;42783;-42
2023/06/16 10:09:36;;;;;;;6.60;6.00;;;;;;;;;;107934;277;42148;-40
2023/06/16 10:12:13;;;;;;;7.40;6.50;;;;;;;;;;107971;272;38821;-43
2023/06/16 10:14:49;;;;;;;6.80;5.90;;;;;;;;;;107990;276;40873;-45
2023/06/16 10:17:23;;;;;;;7.70;6.50;;;;;;;;;;108014;276;42808;-41
2023/06/16 10:19:57;;;;;;;6.70;6.00;;;;;;;;;;108056;276;42159;-46
2023/06/16 10:22:32;;;;;;;7.00;6.30;;;;;;;;;;108016;269;38554;-45
2023/06/16 10:25:07;;;;;;;6.70;6.00;;;;;;;;;;108029;269;39622;-43
2023/06/16 10:27:44;;;;;;;6.60;5.90;;;;;;;;;;108049;277;44146;-48
2023/06/16 10:30:22;;;;;;;7.10;6.40;;;;;;;;;;107993;269;42978;-42
2023/06/16 10:32:59;;;;;;;7.30;6.20;;;;;;;;;;108039;269;39800;-42
2023/06/16 10:35:37;;;;;;;7.50;6.70;;;;;;;;;;108010;277;39860;-43
2023/06/16 10:38:13;;;;;;;7.00;6.20;;;;;;;;;;108067;269;42962;-42
2023/06/16 10:40:47;;;;;;;7.80;6.40;;;;;;;;;;107904;269;175094;-41
2023/06/16 10:43:30;;;;;;;6.80;6.10;;;;;;;;;;107980;269;38786;-39
2023/06/16 10:46:19;;;;;;;7.20;6.10;;;;;;;;;;107931;270;39701;-41
2023/06/16 10:49:20;;;;;;;6.90;6.20;;;;;;;;;;108035;276;42906;-40
2023/06/16 10:51:56;;;;;;;6.40;5.80;;;;;;;;;;107966;274;42132;-40
2023/06/16 10:54:48;;;;;;;6.70;5.90;;;;;;;;;;108015;269;39908;-40
2023/06/16 10:57:22;;;;;;;6.30;5.70;;;;;;;;;;108073;269;46473;-40
2023/06/16 11:00:01;;;;;;;6.10;5.50;;;;;;;;;;108010;272;43119;-39
2023/06/16 11:02:40;;;;;;;6.10;5.50;;;;;;;;;;107995;276;41890;-40
2023/06/16 11:05:22;;;;;;;6.10;5.40;;;;;;;;;;107999;272;38728;-41
2023/06/16 11:08:20;;;;;;;5.90;5.30;;;;;;;;;;108000;269;46921;-39
2023/06/16 11:10:58;;;;;;;6.70;5.60;;;;;;;;;;108002;269;42973;-41
2023/06/16 11:13:38;;;;;;;5.90;5.30;;;;;;;;;;108012;276;43106;-40
2023/06/16 11:16:14;;;;;;;6.00;5.40;;;;;;;;;;107975;276;39003;-40
2023/06/16 11:18:50;;;;;;;6.10;5.50;;;;;;;;;;107999;269;39676;-40
2023/06/16 11:21:31;;;;;;;7.20;6.10;;;;;;;;;;108021;269;43129;-40
2023/06/16 11:24:13;;;;;;;6.40;5.70;;;;;;;;;;108068;269;42131;-41
2023/06/16 11:26:46;;;;;;;6.80;6.00;;;;;;;;;;107904;276;175496;-40
2023/06/16 11:29:28;;;;;;;6.40;5.80;;;;;;;;;;108061;277;41932;-41
2023/06/16 11:32:03;;;;;;;6.40;5.50;;;;;;;;;;108085;272;42866;-41
2023/06/16 11:34:37;;;;;;;6.50;5.80;;;;;;;;;;108060;277;42101;-39
2023/06/16 11:37:11;;;;;;;6.90;6.20;;;;;;;;;;108043;276;39921;-40
2023/06/16 11:39:47;;;;;;;6.70;5.80;;;;;;;;;;108075;272;39642;-41
2023/06/16 11:42:20;;;;;;;7.20;5.80;;;;;;;;;;108096;269;42873;-42
2023/06/16 11:44:58;;;;;;;6.50;5.80;;;;;;;;;;108085;276;42138;-42
2023/06/16 11:47:45;;;;;;;6.60;5.80;;;;;;;;;;107975;276;38787;-42
2023/06/16 11:50:19;;;;;;;6.80;6.10;;;;;;;;;;108046;277;40781;-43
2023/06/16 11:52:55;;;;;;;7.60;6.00;;;;;;;;;;108042;272;42816;-43
2023/06/16 11:55:29;;;;;;;6.90;6.10;;;;;;;;;;108029;276;42083;-41
2023/06/16 11:58:03;;;;;;;7.30;5.90;;;;;;;;;;108267;276;38788;-41
2023/06/16 12:00:38;;;;;;;6.60;5.90;;;;;;;;;;108045;276;175393;-40
2023/06/16 12:03:14;;;;;;;8.30;6.20;;;;;;;;;;108112;271;43195;-39
2023/06/16 12:05:49;;;;;;;7.00;5.90;;;;;;;;;;108124;276;42135;-47
2023/06/16 12:08:44;;;;;;;6.70;6.00;;;;;;;;;;108044;276;38659;-41
2023/06/16 12:11:27;;;;;;;6.40;5.80;;;;;;;;;;108108;272;39956;-41
2023/06/16 12:14:07;;;;;;;6.80;6.10;;;;;;;;;;108142;275;42563;-40
2023/06/16 12:16:41;;;;;;;6.70;6.00;;;;;;;;;;108157;267;42196;-40
2023/06/16 12:19:19;;;;;;;6.80;6.10;;;;;;;;;;108085;276;44275;-39
2023/06/16 12:22:01;;;;;;;6.70;5.90;;;;;;;;;;108092;277;40135;-40
2023/06/16 12:24:37;;;;;;;8.40;6.40;;;;;;;;;;108182;268;44176;-41
2023/06/16 12:27:11;;;;;;;7.20;6.10;;;;;;;;;;108022;276;42001;-42
2023/06/16 12:29:44;;;;;;;7.00;6.40;;;;;;;;;;108035;269;45030;-44
2023/06/16 12:32:20;;;;;;;6.50;5.90;;;;;;;;;;108072;275;39648;-47
2023/06/16 12:34:58;;;;;;;7.00;6.30;;;;;;;;;;108057;268;42809;-41
2023/06/16 12:37:34;;;;;;;6.40;5.80;;;;;;;;;;108051;268;42163;-39
2023/06/16 12:40:16;;;;;;;7.30;6.60;;;;;;;;;;108095;276;38585;-44
2023/06/16 12:42:53;;;;;;;7.00;6.30;;;;;;;;;;108042;268;39450;-41
2023/06/16 12:45:29;;;;;;;7.00;6.30;;;;;;;;;;107391;273;893541;-40
2023/06/16 12:48:08;;;;;;;7.10;6.40;;;;;;;;;;107632;275;501856;-42
2023/06/16 12:50:43;;;;;;;6.80;6.00;;;;;;;;;;108078;268;38747;-41
2023/06/16 12:53:19;;;;;;;7.20;6.50;;;;;;;;;;108061;276;39921;-42
2023/06/16 12:55:52;;;;;;;7.10;6.40;;;;;;;;;;108068;268;42794;-42
2023/06/16 12:58:25;;;;;;;7.00;6.30;;;;;;;;;;108035;275;42104;-41
2023/06/16 13:01:03;;;;;;;7.20;6.50;;;;;;;;;;108086;273;39888;-43
2023/06/16 13:03:40;;;;;;;7.10;6.40;;;;;;;;;;108104;273;39704;-43
2023/06/16 13:06:15;;;;;;;7.00;6.40;;;;;;;;;;108076;276;42825;-39
2023/06/16 13:08:48;;;;;;;7.40;6.70;;;;;;;;;;108067;271;42256;-44
2023/06/16 13:11:22;;;;;;;7.10;6.40;;;;;;;;;;108068;275;39876;-43
2023/06/16 13:13:56;;;;;;;7.30;6.60;;;;;;;;;;107961;273;175403;-42
2023/06/16 13:16:30;;;;;;;7.00;6.30;;;;;;;;;;108084;275;42878;-41
2023/06/16 13:19:04;;;;;;;7.00;6.30;;;;;;;;;;108018;276;42158;-42
2023/06/16 13:21:37;;;;;;;6.70;6.10;;;;;;;;;;108058;276;38765;-42
2023/06/16 13:24:11;;;;;;;6.60;6.00;;;;;;;;;;108064;275;39406;-43
2023/06/16 13:26:45;;;;;;;6.10;5.50;;;;;;;;;;108031;272;42626;-42
2023/06/16 13:29:20;;;;;;;8.40;6.30;;;;;;;;;;108036;276;42340;-43
2023/06/16 13:31:54;;;;;;;6.90;6.20;;;;;;;;;;108055;272;38770;-42
2023/06/16 13:34:30;;;;;;;6.30;5.70;;;;;;;;;;108066;273;39670;-43
2023/06/16 13:37:03;;;;;;;6.40;5.80;;;;;;;;;;108073;276;43941;-40
2023/06/16 13:39:38;;;;;;;6.60;6.00;;;;;;;;;;108016;271;42215;-41
2023/06/16 13:42:12;;;;;;;6.80;6.10;;;;;;;;;;108111;275;39871;-41
2023/06/16 13:44:45;;;;;;;6.50;5.80;;;;;;;;;;108128;267;39753;-40
2023/06/16 13:47:21;;;;;;;6.60;5.90;;;;;;;;;;108114;276;44386;-44
2023/06/16 13:49:56;;;;;;;6.30;5.70;;;;;;;;;;108073;276;41930;-42
2023/06/16 13:52:40;;;;;;;7.00;6.20;;;;;;;;;;108062;268;40071;-48
2023/06/16 13:55:16;;;;;;;6.30;5.70;;;;;;;;;;108054;276;39453;-43
2023/06/16 13:57:50;;;;;;;6.20;5.60;;;;;;;;;;108086;268;42972;-47
2023/06/16 14:00:24;;;;;;;6.30;5.70;;;;;;;;;;108041;268;42198;-44
2023/06/16 14:02:58;;;;;;;6.20;5.60;;;;;;;;;;108153;276;38788;-50
2023/06/16 14:05:32;;;;;;;6.10;5.50;;;;;;;;;;108109;268;39659;-49
2023/06/16 14:08:08;;;;;;;6.20;5.60;;;;;;;;;;108102;276;42831;-47
2023/06/16 14:10:41;;;;;;;5.80;5.20;;;;;;;;;;107997;276;42223;-47
2023/06/16 14:13:17;;;;;;;6.00;5.40;;;;;;;;;;108051;269;41095;-44
2023/06/16 14:15:53;;;;;;;6.20;5.50;;;;;;;;;;108075;267;39840;-42
2023/06/16 14:18:32;;;;;;;6.20;5.60;;;;;;;;;;108079;268;44019;-41
2023/06/16 14:21:05;;;;;;;6.20;5.50;;;;;;;;;;108099;268;42327;-41
2023/06/16 14:23:38;;;;;;;6.30;5.70;;;;;;;;;;108135;276;38782;-42
2023/06/16 14:26:11;;;;;;;6.50;5.50;;;;;;;;;;108027;275;39542;-44
2023/06/16 14:28:44;;;;;;;5.70;5.10;;;;;;;;;;108043;275;43447;-43
2023/06/16 14:31:21;;;;;;;6.00;5.20;;;;;;;;;;107969;268;43186;-41
2023/06/16 14:33:54;;;;;;;6.40;5.30;;;;;;;;;;108168;271;38868;-41
2023/06/16 14:36:28;;;;;;;6.00;5.10;;;;;;;;;;108140;271;40720;-42
2023/06/16 14:39:03;;;;;;;6.50;5.40;;;;;;;;;;108098;273;42897;-43
2023/06/16 14:41:39;;;;;;;6.00;5.40;;;;;;;;;;108012;272;42223;-40
2023/06/16 14:44:14;;;;;;;6.10;5.20;;;;;;;;;;108057;276;38799;-44
2023/06/16 14:46:47;;;;;;;6.50;5.20;;;;;;;;;;108025;275;39666;-41
2023/06/16 14:49:21;;;;;;;7.90;5.40;;;;;;;;;;107995;277;43291;-41
2023/06/16 14:51:55;;;;;;;7.00;5.40;;;;;;;;;;108089;275;42044;-43
2023/06/16 14:54:28;;;;;;;6.70;5.50;;;;;;;;;;108107;275;39773;-45
2023/06/16 14:57:02;;;;;;;6.70;5.70;;;;;;;;;;108059;276;39815;-42
2023/06/16 14:59:37;;;;;;;7.30;5.90;;;;;;;;;;108067;268;43879;-42
2023/06/16 15:02:10;;;;;;;6.50;5.90;;;;;;;;;;108038;276;42000;-42
2023/06/16 15:04:44;;;;;;;7.40;6.60;;;;;;;;;;108081;272;39911;-42
2023/06/16 15:07:20;;;;;;;9.30;6.70;;;;;;;;;;108096;276;39845;-42
2023/06/16 15:09:54;;;;;;;7.60;6.80;;;;;;;;;;108109;276;42953;-45
2023/06/16 15:12:28;;;;;;;7.90;6.90;;;;;;;;;;108068;268;42480;-41
2023/06/16 15:15:02;;;;;;;8.70;6.90;;;;;;;;;;108072;276;38784;-44
2023/06/16 15:17:38;;;;;;;8.00;7.20;;;;;;;;;;108100;276;39417;-43
2023/06/16 15:20:14;;;;;;;7.40;6.70;;;;;;;;;;108038;276;42611;-41
2023/06/16 15:22:48;;;;;;;7.70;6.90;;;;;;;;;;108117;276;42141;-41
2023/06/16 15:25:22;;;;;;;8.60;6.90;;;;;;;;;;108045;276;38621;-41
2023/06/16 15:27:56;;;;;;;8.40;6.90;;;;;;;;;;108018;273;39411;-40
2023/06/16 15:30:44;;;;;;;8.00;7.20;;;;;;;;;;108065;268;42820;-42
2023/06/16 15:33:17;;;;;;;8.10;7.30;;;;;;;;;;107995;272;49986;-41